sensor_id;sensor_type;location;lat;lon;timestamp;P1;durP1;ratioP1;P2;durP2;ratioP2
29732;SDS011;16643;43.158;25.302;2022-12-07T00:01:10;148.02;;;22.30;;
29732;SDS011;16643;43.158;25.302;2022-12-07T00:03:57;300.17;;;32.03;;
29732;SDS011;16643;43.158;25.302;2022-12-07T00:06:37;123.88;;;21.70;;
29732;SDS011;16643;43.158;25.302;2022-12-07T00:09:05;267.60;;;28.95;;
29732;SDS011;16643;43.158;25.302;2022-12-07T00:11:32;366.02;;;34.45;;
29732;SDS011;16643;43.158;25.302;2022-12-07T00:13:59;318.98;;;35.72;;
29732;SDS011;16643;43.158;25.302;2022-12-07T00:16:27;200.15;;;23.33;;
29732;SDS011;16643;43.158;25.302;2022-12-07T00:18:54;612.17;;;62.50;;
29732;SDS011;16643;43.158;25.302;2022-12-07T00:21:21;243.93;;;27.27;;
29732;SDS011;16643;43.158;25.302;2022-12-07T00:23:50;43.83;;;15.00;;
29732;SDS011;16643;43.158;25.302;2022-12-07T00:28:54;313.98;;;31.25;;
29732;SDS011;16643;43.158;25.302;2022-12-07T00:31:22;199.73;;;25.20;;
29732;SDS011;16643;43.158;25.302;2022-12-07T00:36:17;405.25;;;35.97;;
29732;SDS011;16643;43.158;25.302;2022-12-07T00:38:44;232.43;;;31.13;;
29732;SDS011;16643;43.158;25.302;2022-12-07T00:43:40;174.23;;;22.60;;
29732;SDS011;16643;43.158;25.302;2022-12-07T00:46:06;228.30;;;26.27;;
29732;SDS011;16643;43.158;25.302;2022-12-07T00:48:33;346.83;;;34.78;;
29732;SDS011;16643;43.158;25.302;2022-12-07T00:50:59;150.70;;;21.95;;
29732;SDS011;16643;43.158;25.302;2022-12-07T00:53:25;78.68;;;19.33;;
29732;SDS011;16643;43.158;25.302;2022-12-07T00:55:51;164.50;;;23.35;;
29732;SDS011;16643;43.158;25.302;2022-12-07T00:58:17;71.50;;;17.05;;
29732;SDS011;16643;43.158;25.302;2022-12-07T01:00:44;72.78;;;16.45;;
29732;SDS011;16643;43.158;25.302;2022-12-07T01:03:11;198.07;;;27.60;;
29732;SDS011;16643;43.158;25.302;2022-12-07T01:05:39;126.53;;;22.30;;
29732;SDS011;16643;43.158;25.302;2022-12-07T01:08:05;140.80;;;19.92;;
29732;SDS011;16643;43.158;25.302;2022-12-07T01:10:31;202.82;;;24.48;;
29732;SDS011;16643;43.158;25.302;2022-12-07T01:12:58;246.18;;;24.85;;
29732;SDS011;16643;43.158;25.302;2022-12-07T01:15:24;72.75;;;15.88;;
29732;SDS011;16643;43.158;25.302;2022-12-07T01:17:50;44.70;;;14.48;;
29732;SDS011;16643;43.158;25.302;2022-12-07T01:20:16;192.75;;;22.17;;
29732;SDS011;16643;43.158;25.302;2022-12-07T01:22:42;130.18;;;20.85;;
29732;SDS011;16643;43.158;25.302;2022-12-07T01:25:09;50.88;;;16.98;;
29732;SDS011;16643;43.158;25.302;2022-12-07T01:27:36;79.80;;;16.13;;
29732;SDS011;16643;43.158;25.302;2022-12-07T01:30:03;115.78;;;19.83;;
29732;SDS011;16643;43.158;25.302;2022-12-07T01:34:57;49.90;;;16.83;;
29732;SDS011;16643;43.158;25.302;2022-12-07T01:37:23;70.25;;;16.27;;
29732;SDS011;16643;43.158;25.302;2022-12-07T01:39:49;131.05;;;18.17;;
29732;SDS011;16643;43.158;25.302;2022-12-07T01:42:16;87.45;;;18.13;;
29732;SDS011;16643;43.158;25.302;2022-12-07T01:47:46;53.78;;;16.50;;
29732;SDS011;16643;43.158;25.302;2022-12-07T01:50:16;64.63;;;16.77;;
29732;SDS011;16643;43.158;25.302;2022-12-07T01:52:42;47.83;;;17.23;;
29732;SDS011;16643;43.158;25.302;2022-12-07T01:55:11;61.15;;;21.38;;
29732;SDS011;16643;43.158;25.302;2022-12-07T01:57:40;59.15;;;17.33;;
29732;SDS011;16643;43.158;25.302;2022-12-07T02:00:08;52.17;;;15.07;;
29732;SDS011;16643;43.158;25.302;2022-12-07T02:02:57;44.38;;;19.67;;
29732;SDS011;16643;43.158;25.302;2022-12-07T02:05:26;91.60;;;17.83;;
29732;SDS011;16643;43.158;25.302;2022-12-07T02:07:53;64.75;;;18.70;;
29732;SDS011;16643;43.158;25.302;2022-12-07T02:10:26;305.40;;;34.25;;
29732;SDS011;16643;43.158;25.302;2022-12-07T02:12:55;53.58;;;19.15;;
29732;SDS011;16643;43.158;25.302;2022-12-07T02:18:35;98.93;;;21.75;;
29732;SDS011;16643;43.158;25.302;2022-12-07T02:23:50;76.05;;;20.27;;
29732;SDS011;16643;43.158;25.302;2022-12-07T02:26:52;145.38;;;26.15;;
29732;SDS011;16643;43.158;25.302;2022-12-07T02:32:03;50.85;;;19.42;;
29732;SDS011;16643;43.158;25.302;2022-12-07T02:37:19;40.72;;;16.83;;
29732;SDS011;16643;43.158;25.302;2022-12-07T02:40:17;48.65;;;17.88;;
29732;SDS011;16643;43.158;25.302;2022-12-07T02:42:43;38.80;;;16.05;;
29732;SDS011;16643;43.158;25.302;2022-12-07T02:45:17;45.67;;;20.38;;
29732;SDS011;16643;43.158;25.302;2022-12-07T02:47:45;42.70;;;18.23;;
29732;SDS011;16643;43.158;25.302;2022-12-07T02:50:18;38.00;;;15.35;;
29732;SDS011;16643;43.158;25.302;2022-12-07T02:52:45;40.55;;;15.45;;
29732;SDS011;16643;43.158;25.302;2022-12-07T02:55:11;36.95;;;15.40;;
29732;SDS011;16643;43.158;25.302;2022-12-07T03:00:25;27.37;;;12.20;;
29732;SDS011;16643;43.158;25.302;2022-12-07T03:10:55;35.72;;;13.07;;
29732;SDS011;16643;43.158;25.302;2022-12-07T03:13:28;33.08;;;13.75;;
29732;SDS011;16643;43.158;25.302;2022-12-07T03:16:04;34.30;;;15.07;;
29732;SDS011;16643;43.158;25.302;2022-12-07T03:21:44;33.05;;;14.90;;
29732;SDS011;16643;43.158;25.302;2022-12-07T03:24:17;30.13;;;14.13;;
29732;SDS011;16643;43.158;25.302;2022-12-07T03:26:47;32.60;;;14.95;;
29732;SDS011;16643;43.158;25.302;2022-12-07T03:29:24;31.40;;;13.65;;
29732;SDS011;16643;43.158;25.302;2022-12-07T03:32:05;26.25;;;12.48;;
29732;SDS011;16643;43.158;25.302;2022-12-07T03:34:39;26.05;;;12.13;;
29732;SDS011;16643;43.158;25.302;2022-12-07T03:37:18;28.20;;;12.63;;
29732;SDS011;16643;43.158;25.302;2022-12-07T03:40:20;26.90;;;12.35;;
29732;SDS011;16643;43.158;25.302;2022-12-07T03:42:50;24.75;;;11.57;;
29732;SDS011;16643;43.158;25.302;2022-12-07T03:45:18;32.97;;;11.80;;
29732;SDS011;16643;43.158;25.302;2022-12-07T03:47:53;25.35;;;12.40;;
29732;SDS011;16643;43.158;25.302;2022-12-07T03:50:50;25.45;;;13.38;;
29732;SDS011;16643;43.158;25.302;2022-12-07T03:53:25;22.58;;;11.30;;
29732;SDS011;16643;43.158;25.302;2022-12-07T03:56:05;25.08;;;12.73;;
29732;SDS011;16643;43.158;25.302;2022-12-07T03:58:33;21.48;;;11.60;;
29732;SDS011;16643;43.158;25.302;2022-12-07T04:00:59;27.33;;;13.07;;
29732;SDS011;16643;43.158;25.302;2022-12-07T04:03:25;26.17;;;12.65;;
29732;SDS011;16643;43.158;25.302;2022-12-07T04:05:51;25.40;;;12.25;;
29732;SDS011;16643;43.158;25.302;2022-12-07T04:08:17;26.45;;;12.25;;
29732;SDS011;16643;43.158;25.302;2022-12-07T04:10:43;25.38;;;12.15;;
29732;SDS011;16643;43.158;25.302;2022-12-07T04:13:08;26.30;;;11.98;;
29732;SDS011;16643;43.158;25.302;2022-12-07T04:15:34;33.88;;;16.30;;
29732;SDS011;16643;43.158;25.302;2022-12-07T04:18:00;45.70;;;25.58;;
29732;SDS011;16643;43.158;25.302;2022-12-07T04:20:25;31.75;;;17.85;;
29732;SDS011;16643;43.158;25.302;2022-12-07T04:22:51;46.35;;;25.35;;
29732;SDS011;16643;43.158;25.302;2022-12-07T04:25:17;32.30;;;17.20;;
29732;SDS011;16643;43.158;25.302;2022-12-07T04:27:42;32.83;;;18.98;;
29732;SDS011;16643;43.158;25.302;2022-12-07T04:30:08;33.42;;;21.23;;
29732;SDS011;16643;43.158;25.302;2022-12-07T04:32:34;35.63;;;20.85;;
29732;SDS011;16643;43.158;25.302;2022-12-07T04:35:00;35.75;;;21.52;;
29732;SDS011;16643;43.158;25.302;2022-12-07T04:37:25;27.25;;;15.75;;
29732;SDS011;16643;43.158;25.302;2022-12-07T04:39:51;28.00;;;13.85;;
29732;SDS011;16643;43.158;25.302;2022-12-07T04:42:16;21.95;;;11.82;;
29732;SDS011;16643;43.158;25.302;2022-12-07T04:44:42;20.23;;;11.65;;
29732;SDS011;16643;43.158;25.302;2022-12-07T04:47:08;20.15;;;10.57;;
29732;SDS011;16643;43.158;25.302;2022-12-07T04:49:33;22.30;;;10.80;;
29732;SDS011;16643;43.158;25.302;2022-12-07T04:51:59;18.33;;;9.82;;
29732;SDS011;16643;43.158;25.302;2022-12-07T04:54:25;22.25;;;11.85;;
29732;SDS011;16643;43.158;25.302;2022-12-07T04:56:50;23.70;;;11.23;;
29732;SDS011;16643;43.158;25.302;2022-12-07T04:59:16;23.23;;;10.50;;
29732;SDS011;16643;43.158;25.302;2022-12-07T05:01:43;30.08;;;13.63;;
29732;SDS011;16643;43.158;25.302;2022-12-07T05:04:09;23.77;;;11.82;;
29732;SDS011;16643;43.158;25.302;2022-12-07T05:06:35;70.72;;;44.30;;
29732;SDS011;16643;43.158;25.302;2022-12-07T05:09:01;28.70;;;13.90;;
29732;SDS011;16643;43.158;25.302;2022-12-07T05:11:27;32.95;;;17.77;;
29732;SDS011;16643;43.158;25.302;2022-12-07T05:16:33;23.60;;;11.45;;
29732;SDS011;16643;43.158;25.302;2022-12-07T05:18:59;26.25;;;11.45;;
29732;SDS011;16643;43.158;25.302;2022-12-07T05:21:24;24.58;;;10.63;;
29732;SDS011;16643;43.158;25.302;2022-12-07T05:23:50;17.52;;;9.95;;
29732;SDS011;16643;43.158;25.302;2022-12-07T05:26:16;21.63;;;11.50;;
29732;SDS011;16643;43.158;25.302;2022-12-07T05:28:42;21.48;;;10.60;;
29732;SDS011;16643;43.158;25.302;2022-12-07T05:31:08;21.65;;;11.43;;
29732;SDS011;16643;43.158;25.302;2022-12-07T05:33:34;23.63;;;11.35;;
29732;SDS011;16643;43.158;25.302;2022-12-07T05:36:00;19.50;;;10.07;;
29732;SDS011;16643;43.158;25.302;2022-12-07T05:38:31;22.23;;;11.30;;
29732;SDS011;16643;43.158;25.302;2022-12-07T05:41:01;24.52;;;11.60;;
29732;SDS011;16643;43.158;25.302;2022-12-07T05:43:28;18.42;;;9.93;;
29732;SDS011;16643;43.158;25.302;2022-12-07T05:45:54;21.60;;;11.40;;
29732;SDS011;16643;43.158;25.302;2022-12-07T05:48:20;22.73;;;10.40;;
29732;SDS011;16643;43.158;25.302;2022-12-07T05:50:48;22.83;;;11.57;;
29732;SDS011;16643;43.158;25.302;2022-12-07T05:53:14;23.88;;;11.18;;
29732;SDS011;16643;43.158;25.302;2022-12-07T05:55:40;22.35;;;10.77;;
29732;SDS011;16643;43.158;25.302;2022-12-07T05:58:06;30.38;;;17.20;;
29732;SDS011;16643;43.158;25.302;2022-12-07T06:00:50;26.00;;;14.52;;
29732;SDS011;16643;43.158;25.302;2022-12-07T06:03:16;48.78;;;15.40;;
29732;SDS011;16643;43.158;25.302;2022-12-07T06:05:41;90.25;;;19.50;;
29732;SDS011;16643;43.158;25.302;2022-12-07T06:08:07;35.00;;;14.65;;
29732;SDS011;16643;43.158;25.302;2022-12-07T06:10:33;28.80;;;14.93;;
29732;SDS011;16643;43.158;25.302;2022-12-07T06:12:59;111.18;;;21.63;;
29732;SDS011;16643;43.158;25.302;2022-12-07T06:15:24;51.53;;;17.67;;
29732;SDS011;16643;43.158;25.302;2022-12-07T06:17:50;38.17;;;16.67;;
29732;SDS011;16643;43.158;25.302;2022-12-07T06:20:16;137.35;;;24.63;;
29732;SDS011;16643;43.158;25.302;2022-12-07T06:22:42;38.97;;;17.27;;
29732;SDS011;16643;43.158;25.302;2022-12-07T06:25:07;48.88;;;19.35;;
29732;SDS011;16643;43.158;25.302;2022-12-07T06:27:33;56.70;;;24.77;;
29732;SDS011;16643;43.158;25.302;2022-12-07T06:30:00;63.00;;;22.10;;
29732;SDS011;16643;43.158;25.302;2022-12-07T06:32:31;102.20;;;24.55;;
29732;SDS011;16643;43.158;25.302;2022-12-07T06:34:59;152.18;;;19.48;;
29732;SDS011;16643;43.158;25.302;2022-12-07T06:37:25;210.27;;;19.35;;
29732;SDS011;16643;43.158;25.302;2022-12-07T06:39:50;124.72;;;14.73;;
29732;SDS011;16643;43.158;25.302;2022-12-07T06:42:16;203.65;;;22.98;;
29732;SDS011;16643;43.158;25.302;2022-12-07T06:44:42;87.35;;;17.50;;
29732;SDS011;16643;43.158;25.302;2022-12-07T06:47:08;300.48;;;27.65;;
29732;SDS011;16643;43.158;25.302;2022-12-07T06:49:34;102.20;;;13.82;;
29732;SDS011;16643;43.158;25.302;2022-12-07T06:52:00;346.27;;;27.58;;
29732;SDS011;16643;43.158;25.302;2022-12-07T06:54:26;423.90;;;34.05;;
29732;SDS011;16643;43.158;25.302;2022-12-07T06:56:52;217.85;;;17.95;;
29732;SDS011;16643;43.158;25.302;2022-12-07T06:59:18;264.70;;;30.45;;
29732;SDS011;16643;43.158;25.302;2022-12-07T07:01:43;37.38;;;13.05;;
29732;SDS011;16643;43.158;25.302;2022-12-07T07:04:09;102.25;;;20.50;;
29732;SDS011;16643;43.158;25.302;2022-12-07T07:06:35;365.48;;;41.05;;
29732;SDS011;16643;43.158;25.302;2022-12-07T07:09:01;143.27;;;18.77;;
29732;SDS011;16643;43.158;25.302;2022-12-07T07:11:26;100.47;;;15.07;;
29732;SDS011;16643;43.158;25.302;2022-12-07T07:13:52;207.27;;;26.92;;
29732;SDS011;16643;43.158;25.302;2022-12-07T07:16:18;34.78;;;14.10;;
29732;SDS011;16643;43.158;25.302;2022-12-07T07:18:44;135.30;;;22.08;;
29732;SDS011;16643;43.158;25.302;2022-12-07T07:21:10;105.13;;;19.50;;
29732;SDS011;16643;43.158;25.302;2022-12-07T07:23:36;225.10;;;31.73;;
29732;SDS011;16643;43.158;25.302;2022-12-07T07:26:01;87.70;;;18.85;;
29732;SDS011;16643;43.158;25.302;2022-12-07T07:28:27;95.15;;;18.42;;
29732;SDS011;16643;43.158;25.302;2022-12-07T07:30:52;167.38;;;23.90;;
29732;SDS011;16643;43.158;25.302;2022-12-07T07:33:18;211.63;;;25.67;;
29732;SDS011;16643;43.158;25.302;2022-12-07T07:35:44;115.25;;;17.88;;
29732;SDS011;16643;43.158;25.302;2022-12-07T07:38:10;207.10;;;21.90;;
29732;SDS011;16643;43.158;25.302;2022-12-07T07:40:35;219.98;;;22.08;;
29732;SDS011;16643;43.158;25.302;2022-12-07T07:43:02;68.38;;;14.65;;
29732;SDS011;16643;43.158;25.302;2022-12-07T07:45:27;140.95;;;19.00;;
29732;SDS011;16643;43.158;25.302;2022-12-07T07:47:53;142.65;;;21.17;;
29732;SDS011;16643;43.158;25.302;2022-12-07T07:50:19;180.35;;;20.88;;
29732;SDS011;16643;43.158;25.302;2022-12-07T07:52:45;33.38;;;13.05;;
29732;SDS011;16643;43.158;25.302;2022-12-07T07:55:11;33.20;;;12.23;;
29732;SDS011;16643;43.158;25.302;2022-12-07T07:57:38;61.28;;;14.30;;
29732;SDS011;16643;43.158;25.302;2022-12-07T08:00:06;75.28;;;17.58;;
29732;SDS011;16643;43.158;25.302;2022-12-07T08:02:34;87.13;;;15.55;;
29732;SDS011;16643;43.158;25.302;2022-12-07T08:05:01;30.48;;;13.43;;
29732;SDS011;16643;43.158;25.302;2022-12-07T08:07:27;28.13;;;12.55;;
29732;SDS011;16643;43.158;25.302;2022-12-07T08:09:53;38.25;;;12.32;;
29732;SDS011;16643;43.158;25.302;2022-12-07T08:12:18;25.70;;;12.35;;
29732;SDS011;16643;43.158;25.302;2022-12-07T08:14:44;43.83;;;16.00;;
29732;SDS011;16643;43.158;25.302;2022-12-07T08:17:10;29.52;;;15.35;;
29732;SDS011;16643;43.158;25.302;2022-12-07T08:19:36;32.25;;;15.25;;
29732;SDS011;16643;43.158;25.302;2022-12-07T08:22:02;29.20;;;14.15;;
29732;SDS011;16643;43.158;25.302;2022-12-07T08:24:27;36.75;;;14.05;;
29732;SDS011;16643;43.158;25.302;2022-12-07T08:26:53;40.65;;;18.05;;
29732;SDS011;16643;43.158;25.302;2022-12-07T08:29:19;37.80;;;16.73;;
29732;SDS011;16643;43.158;25.302;2022-12-07T08:31:46;50.17;;;16.73;;
29732;SDS011;16643;43.158;25.302;2022-12-07T08:34:12;28.52;;;15.30;;
29732;SDS011;16643;43.158;25.302;2022-12-07T08:36:38;32.55;;;15.23;;
29732;SDS011;16643;43.158;25.302;2022-12-07T08:39:04;25.40;;;13.75;;
29732;SDS011;16643;43.158;25.302;2022-12-07T08:41:31;28.40;;;14.32;;
29732;SDS011;16643;43.158;25.302;2022-12-07T08:43:57;29.13;;;13.82;;
29732;SDS011;16643;43.158;25.302;2022-12-07T08:46:24;25.95;;;14.30;;
29732;SDS011;16643;43.158;25.302;2022-12-07T08:49:05;26.77;;;13.70;;
29732;SDS011;16643;43.158;25.302;2022-12-07T08:51:43;46.22;;;25.60;;
29732;SDS011;16643;43.158;25.302;2022-12-07T08:54:14;49.10;;;27.92;;
29732;SDS011;16643;43.158;25.302;2022-12-07T08:56:41;60.67;;;35.58;;
29732;SDS011;16643;43.158;25.302;2022-12-07T08:59:08;46.45;;;26.63;;
29732;SDS011;16643;43.158;25.302;2022-12-07T09:01:34;33.40;;;18.52;;
29732;SDS011;16643;43.158;25.302;2022-12-07T09:03:59;29.67;;;17.90;;
29732;SDS011;16643;43.158;25.302;2022-12-07T09:06:25;36.33;;;19.20;;
29732;SDS011;16643;43.158;25.302;2022-12-07T09:08:52;41.97;;;22.98;;
29732;SDS011;16643;43.158;25.302;2022-12-07T09:11:22;43.42;;;25.02;;
29732;SDS011;16643;43.158;25.302;2022-12-07T09:13:48;41.38;;;24.35;;
29732;SDS011;16643;43.158;25.302;2022-12-07T09:16:13;41.42;;;24.65;;
29732;SDS011;16643;43.158;25.302;2022-12-07T09:18:39;43.42;;;26.05;;
29732;SDS011;16643;43.158;25.302;2022-12-07T09:21:04;47.95;;;27.67;;
29732;SDS011;16643;43.158;25.302;2022-12-07T09:23:30;36.03;;;20.80;;
29732;SDS011;16643;43.158;25.302;2022-12-07T09:26:00;28.20;;;14.75;;
29732;SDS011;16643;43.158;25.302;2022-12-07T09:28:27;21.38;;;11.95;;
29732;SDS011;16643;43.158;25.302;2022-12-07T09:30:52;15.48;;;9.07;;
29732;SDS011;16643;43.158;25.302;2022-12-07T09:33:18;14.25;;;8.85;;
29732;SDS011;16643;43.158;25.302;2022-12-07T09:35:47;15.48;;;8.77;;
29732;SDS011;16643;43.158;25.302;2022-12-07T09:38:14;16.25;;;9.43;;
29732;SDS011;16643;43.158;25.302;2022-12-07T09:40:40;15.88;;;9.63;;
29732;SDS011;16643;43.158;25.302;2022-12-07T09:43:21;17.33;;;9.45;;
29732;SDS011;16643;43.158;25.302;2022-12-07T09:45:52;15.02;;;9.73;;
29732;SDS011;16643;43.158;25.302;2022-12-07T09:48:33;18.08;;;9.13;;
29732;SDS011;16643;43.158;25.302;2022-12-07T09:51:02;17.33;;;9.90;;
29732;SDS011;16643;43.158;25.302;2022-12-07T09:53:38;19.13;;;10.63;;
29732;SDS011;16643;43.158;25.302;2022-12-07T09:56:05;17.52;;;10.48;;
29732;SDS011;16643;43.158;25.302;2022-12-07T09:58:31;17.60;;;9.00;;
29732;SDS011;16643;43.158;25.302;2022-12-07T10:01:00;19.77;;;9.50;;
29732;SDS011;16643;43.158;25.302;2022-12-07T10:03:36;18.83;;;10.23;;
29732;SDS011;16643;43.158;25.302;2022-12-07T10:06:05;31.35;;;17.73;;
29732;SDS011;16643;43.158;25.302;2022-12-07T10:08:32;31.80;;;16.52;;
29732;SDS011;16643;43.158;25.302;2022-12-07T10:10:58;26.17;;;13.77;;
29732;SDS011;16643;43.158;25.302;2022-12-07T10:13:44;31.33;;;14.75;;
29732;SDS011;16643;43.158;25.302;2022-12-07T10:18:49;29.75;;;13.90;;
29732;SDS011;16643;43.158;25.302;2022-12-07T10:21:16;28.40;;;15.65;;
29732;SDS011;16643;43.158;25.302;2022-12-07T10:24:00;31.00;;;14.23;;
29732;SDS011;16643;43.158;25.302;2022-12-07T10:31:42;33.35;;;16.23;;
29732;SDS011;16643;43.158;25.302;2022-12-07T10:34:26;30.70;;;15.27;;
29732;SDS011;16643;43.158;25.302;2022-12-07T10:39:51;26.95;;;14.18;;
29732;SDS011;16643;43.158;25.302;2022-12-07T10:42:19;27.52;;;13.07;;
29732;SDS011;16643;43.158;25.302;2022-12-07T10:44:47;25.65;;;12.95;;
29732;SDS011;16643;43.158;25.302;2022-12-07T10:52:52;28.50;;;15.63;;
29732;SDS011;16643;43.158;25.302;2022-12-07T10:58:31;27.05;;;14.65;;
29732;SDS011;16643;43.158;25.302;2022-12-07T11:01:33;25.63;;;12.93;;
29732;SDS011;16643;43.158;25.302;2022-12-07T11:04:24;25.08;;;13.57;;
29732;SDS011;16643;43.158;25.302;2022-12-07T11:07:34;34.90;;;16.98;;
29732;SDS011;16643;43.158;25.302;2022-12-07T11:10:05;33.17;;;16.05;;
29732;SDS011;16643;43.158;25.302;2022-12-07T11:28:54;29.33;;;15.07;;
29732;SDS011;16643;43.158;25.302;2022-12-07T11:37:31;23.33;;;12.10;;
29732;SDS011;16643;43.158;25.302;2022-12-07T11:40:03;21.83;;;12.75;;
29732;SDS011;16643;43.158;25.302;2022-12-07T11:42:56;23.45;;;13.77;;
29732;SDS011;16643;43.158;25.302;2022-12-07T11:45:27;28.50;;;15.70;;
29732;SDS011;16643;43.158;25.302;2022-12-07T11:48:30;28.02;;;15.57;;
29732;SDS011;16643;43.158;25.302;2022-12-07T11:51:14;30.00;;;15.93;;
29732;SDS011;16643;43.158;25.302;2022-12-07T11:53:47;34.47;;;15.90;;
29732;SDS011;16643;43.158;25.302;2022-12-07T11:56:22;33.80;;;16.25;;
29732;SDS011;16643;43.158;25.302;2022-12-07T11:58:56;32.35;;;17.42;;
29732;SDS011;16643;43.158;25.302;2022-12-07T12:03:56;31.83;;;16.27;;
29732;SDS011;16643;43.158;25.302;2022-12-07T12:06:27;34.58;;;18.60;;
29732;SDS011;16643;43.158;25.302;2022-12-07T12:09:00;32.00;;;17.20;;
29732;SDS011;16643;43.158;25.302;2022-12-07T12:23:05;26.13;;;14.85;;
29732;SDS011;16643;43.158;25.302;2022-12-07T12:25:50;29.33;;;14.68;;
29732;SDS011;16643;43.158;25.302;2022-12-07T12:31:07;27.00;;;14.23;;
29732;SDS011;16643;43.158;25.302;2022-12-07T12:33:50;26.17;;;15.30;;
29732;SDS011;16643;43.158;25.302;2022-12-07T12:46:45;33.05;;;16.17;;
29732;SDS011;16643;43.158;25.302;2022-12-07T12:51:50;30.98;;;17.23;;
29732;SDS011;16643;43.158;25.302;2022-12-07T12:54:27;31.75;;;16.65;;
29732;SDS011;16643;43.158;25.302;2022-12-07T12:59:36;35.70;;;18.10;;
29732;SDS011;16643;43.158;25.302;2022-12-07T13:12:55;53.60;;;27.77;;
29732;SDS011;16643;43.158;25.302;2022-12-07T13:20:56;40.55;;;20.15;;
29732;SDS011;16643;43.158;25.302;2022-12-07T13:26:19;46.97;;;23.52;;
29732;SDS011;16643;43.158;25.302;2022-12-07T13:37:01;58.85;;;28.42;;
29732;SDS011;16643;43.158;25.302;2022-12-07T13:39:35;55.55;;;25.35;;
29732;SDS011;16643;43.158;25.302;2022-12-07T13:44:50;43.83;;;22.42;;
29732;SDS011;16643;43.158;25.302;2022-12-07T13:52:54;52.25;;;23.80;;
29732;SDS011;16643;43.158;25.302;2022-12-07T13:55:21;72.43;;;34.05;;
29732;SDS011;16643;43.158;25.302;2022-12-07T13:57:49;78.00;;;34.50;;
29732;SDS011;16643;43.158;25.302;2022-12-07T14:00:26;79.00;;;34.90;;
29732;SDS011;16643;43.158;25.302;2022-12-07T14:03:01;72.85;;;32.25;;
29732;SDS011;16643;43.158;25.302;2022-12-07T14:05:32;60.92;;;28.70;;
29732;SDS011;16643;43.158;25.302;2022-12-07T14:08:03;56.95;;;28.58;;
29732;SDS011;16643;43.158;25.302;2022-12-07T14:12:58;50.78;;;25.40;;
29732;SDS011;16643;43.158;25.302;2022-12-07T14:15:29;57.22;;;26.45;;
29732;SDS011;16643;43.158;25.302;2022-12-07T14:17:57;57.40;;;27.30;;
29732;SDS011;16643;43.158;25.302;2022-12-07T14:20:30;69.18;;;30.35;;
29732;SDS011;16643;43.158;25.302;2022-12-07T14:22:57;61.83;;;28.48;;
29732;SDS011;16643;43.158;25.302;2022-12-07T14:25:24;50.72;;;25.38;;
29732;SDS011;16643;43.158;25.302;2022-12-07T14:27:56;56.22;;;29.48;;
29732;SDS011;16643;43.158;25.302;2022-12-07T14:30:30;54.33;;;28.40;;
29732;SDS011;16643;43.158;25.302;2022-12-07T14:32:58;62.92;;;29.83;;
29732;SDS011;16643;43.158;25.302;2022-12-07T14:37:52;49.95;;;27.02;;
29732;SDS011;16643;43.158;25.302;2022-12-07T14:40:19;61.20;;;32.08;;
29732;SDS011;16643;43.158;25.302;2022-12-07T14:42:47;59.30;;;34.97;;
29732;SDS011;16643;43.158;25.302;2022-12-07T14:45:20;58.58;;;33.65;;
29732;SDS011;16643;43.158;25.302;2022-12-07T14:47:47;66.83;;;35.77;;
29732;SDS011;16643;43.158;25.302;2022-12-07T14:50:14;63.92;;;35.28;;
29732;SDS011;16643;43.158;25.302;2022-12-07T14:52:42;55.97;;;29.90;;
29732;SDS011;16643;43.158;25.302;2022-12-07T14:55:22;55.42;;;29.23;;
29732;SDS011;16643;43.158;25.302;2022-12-07T14:57:53;57.78;;;30.73;;
29732;SDS011;16643;43.158;25.302;2022-12-07T15:00:19;59.35;;;31.80;;
29732;SDS011;16643;43.158;25.302;2022-12-07T15:02:47;61.83;;;33.97;;
29732;SDS011;16643;43.158;25.302;2022-12-07T15:05:14;73.57;;;40.17;;
29732;SDS011;16643;43.158;25.302;2022-12-07T15:07:40;65.35;;;36.95;;
29732;SDS011;16643;43.158;25.302;2022-12-07T15:10:06;64.93;;;38.38;;
29732;SDS011;16643;43.158;25.302;2022-12-07T15:12:40;72.57;;;39.80;;
29732;SDS011;16643;43.158;25.302;2022-12-07T15:15:05;72.18;;;39.90;;
29732;SDS011;16643;43.158;25.302;2022-12-07T15:17:31;70.65;;;39.47;;
29732;SDS011;16643;43.158;25.302;2022-12-07T15:19:57;72.45;;;40.00;;
29732;SDS011;16643;43.158;25.302;2022-12-07T15:22:23;65.03;;;33.30;;
29732;SDS011;16643;43.158;25.302;2022-12-07T15:24:48;52.28;;;28.55;;
29732;SDS011;16643;43.158;25.302;2022-12-07T15:27:14;52.50;;;28.23;;
29732;SDS011;16643;43.158;25.302;2022-12-07T15:29:39;57.45;;;31.48;;
29732;SDS011;16643;43.158;25.302;2022-12-07T15:32:05;55.28;;;27.15;;
29732;SDS011;16643;43.158;25.302;2022-12-07T15:34:31;48.67;;;27.60;;
29732;SDS011;16643;43.158;25.302;2022-12-07T15:36:57;55.00;;;29.23;;
29732;SDS011;16643;43.158;25.302;2022-12-07T15:39:22;53.17;;;28.10;;
29732;SDS011;16643;43.158;25.302;2022-12-07T15:41:48;49.78;;;27.35;;
29732;SDS011;16643;43.158;25.302;2022-12-07T15:44:14;47.40;;;25.27;;
29732;SDS011;16643;43.158;25.302;2022-12-07T15:46:58;52.75;;;27.42;;
29732;SDS011;16643;43.158;25.302;2022-12-07T15:49:25;61.42;;;31.00;;
29732;SDS011;16643;43.158;25.302;2022-12-07T15:51:51;61.03;;;28.75;;
29732;SDS011;16643;43.158;25.302;2022-12-07T15:54:23;56.58;;;28.73;;
29732;SDS011;16643;43.158;25.302;2022-12-07T15:56:51;54.80;;;28.50;;
29732;SDS011;16643;43.158;25.302;2022-12-07T15:59:17;55.90;;;28.83;;
29732;SDS011;16643;43.158;25.302;2022-12-07T16:01:43;55.05;;;28.70;;
29732;SDS011;16643;43.158;25.302;2022-12-07T16:04:08;61.45;;;31.02;;
29732;SDS011;16643;43.158;25.302;2022-12-07T16:06:34;58.67;;;29.50;;
29732;SDS011;16643;43.158;25.302;2022-12-07T16:09:00;65.22;;;31.73;;
29732;SDS011;16643;43.158;25.302;2022-12-07T16:11:26;69.00;;;35.67;;
29732;SDS011;16643;43.158;25.302;2022-12-07T16:13:52;54.58;;;30.92;;
29732;SDS011;16643;43.158;25.302;2022-12-07T16:16:18;53.65;;;30.17;;
29732;SDS011;16643;43.158;25.302;2022-12-07T16:18:45;56.67;;;29.27;;
29732;SDS011;16643;43.158;25.302;2022-12-07T16:21:12;56.30;;;29.30;;
29732;SDS011;16643;43.158;25.302;2022-12-07T16:23:39;56.72;;;29.05;;
29732;SDS011;16643;43.158;25.302;2022-12-07T16:26:09;58.95;;;29.45;;
29732;SDS011;16643;43.158;25.302;2022-12-07T16:28:37;54.53;;;27.23;;
29732;SDS011;16643;43.158;25.302;2022-12-07T16:31:07;57.05;;;29.35;;
29732;SDS011;16643;43.158;25.302;2022-12-07T16:33:38;59.85;;;30.45;;
29732;SDS011;16643;43.158;25.302;2022-12-07T16:36:05;57.15;;;30.15;;
29732;SDS011;16643;43.158;25.302;2022-12-07T16:38:32;59.58;;;30.65;;
29732;SDS011;16643;43.158;25.302;2022-12-07T16:40:59;59.20;;;29.02;;
29732;SDS011;16643;43.158;25.302;2022-12-07T16:43:24;64.20;;;33.15;;
29732;SDS011;16643;43.158;25.302;2022-12-07T16:45:50;67.40;;;30.52;;
29732;SDS011;16643;43.158;25.302;2022-12-07T16:48:17;72.63;;;33.80;;
29732;SDS011;16643;43.158;25.302;2022-12-07T16:50:43;61.53;;;32.60;;
29732;SDS011;16643;43.158;25.302;2022-12-07T16:53:10;79.93;;;37.72;;